sensor_id;sensor_type;location;lat;lon;timestamp;P1;durP1;ratioP1;P2;durP2;ratioP2
6358;SDS011;3212;51.460;11.868;2022-11-12T00:01:02;9.93;;;5.73;;
6358;SDS011;3212;51.460;11.868;2022-11-12T00:04:24;10.93;;;5.50;;
6358;SDS011;3212;51.460;11.868;2022-11-12T00:07:47;10.10;;;5.50;;
6358;SDS011;3212;51.460;11.868;2022-11-12T00:11:09;7.30;;;4.87;;
6358;SDS011;3212;51.460;11.868;2022-11-12T00:14:32;8.63;;;5.30;;
6358;SDS011;3212;51.460;11.868;2022-11-12T00:17:54;7.93;;;4.63;;
6358;SDS011;3212;51.460;11.868;2022-11-12T00:21:17;9.67;;;5.43;;
6358;SDS011;3212;51.460;11.868;2022-11-12T00:24:40;8.57;;;5.03;;
6358;SDS011;3212;51.460;11.868;2022-11-12T00:28:07;6.90;;;5.33;;
6358;SDS011;3212;51.460;11.868;2022-11-12T00:31:28;8.73;;;4.07;;
6358;SDS011;3212;51.460;11.868;2022-11-12T00:34:50;9.00;;;5.10;;
6358;SDS011;3212;51.460;11.868;2022-11-12T00:38:14;7.50;;;5.17;;
6358;SDS011;3212;51.460;11.868;2022-11-12T00:41:36;7.20;;;5.40;;
6358;SDS011;3212;51.460;11.868;2022-11-12T00:44:59;6.13;;;4.20;;
6358;SDS011;3212;51.460;11.868;2022-11-12T00:48:21;8.57;;;4.43;;
6358;SDS011;3212;51.460;11.868;2022-11-12T00:51:43;5.93;;;3.90;;
6358;SDS011;3212;51.460;11.868;2022-11-12T00:55:07;4.93;;;3.60;;
6358;SDS011;3212;51.460;11.868;2022-11-12T00:58:30;4.90;;;3.77;;
6358;SDS011;3212;51.460;11.868;2022-11-12T01:01:52;4.80;;;3.30;;
6358;SDS011;3212;51.460;11.868;2022-11-12T01:05:15;5.77;;;4.10;;
6358;SDS011;3212;51.460;11.868;2022-11-12T01:08:38;6.57;;;3.93;;
6358;SDS011;3212;51.460;11.868;2022-11-12T01:12:00;5.70;;;3.90;;
6358;SDS011;3212;51.460;11.868;2022-11-12T01:15:22;5.10;;;3.80;;
6358;SDS011;3212;51.460;11.868;2022-11-12T01:18:45;5.22;;;3.67;;
6358;SDS011;3212;51.460;11.868;2022-11-12T01:22:07;5.50;;;3.70;;
6358;SDS011;3212;51.460;11.868;2022-11-12T01:25:30;5.10;;;3.87;;
6358;SDS011;3212;51.460;11.868;2022-11-12T01:28:54;5.57;;;3.50;;
6358;SDS011;3212;51.460;11.868;2022-11-12T01:32:16;5.50;;;3.23;;
6358;SDS011;3212;51.460;11.868;2022-11-12T01:35:38;4.60;;;3.03;;
6358;SDS011;3212;51.460;11.868;2022-11-12T01:39:01;8.77;;;3.40;;
6358;SDS011;3212;51.460;11.868;2022-11-12T01:42:27;4.17;;;3.10;;
6358;SDS011;3212;51.460;11.868;2022-11-12T01:45:47;3.58;;;2.92;;
6358;SDS011;3212;51.460;11.868;2022-11-12T01:49:11;5.13;;;3.30;;
6358;SDS011;3212;51.460;11.868;2022-11-12T01:52:35;4.40;;;3.00;;
6358;SDS011;3212;51.460;11.868;2022-11-12T01:55:58;8.00;;;3.87;;
6358;SDS011;3212;51.460;11.868;2022-11-12T01:59:24;5.47;;;3.37;;
6358;SDS011;3212;51.460;11.868;2022-11-12T02:02:45;7.37;;;3.50;;
6358;SDS011;3212;51.460;11.868;2022-11-12T02:06:08;5.50;;;4.00;;
6358;SDS011;3212;51.460;11.868;2022-11-12T02:09:30;5.40;;;3.80;;
6358;SDS011;3212;51.460;11.868;2022-11-12T02:12:52;5.80;;;4.00;;
6358;SDS011;3212;51.460;11.868;2022-11-12T02:16:20;7.67;;;4.57;;
6358;SDS011;3212;51.460;11.868;2022-11-12T02:19:44;6.90;;;3.43;;
6358;SDS011;3212;51.460;11.868;2022-11-12T02:23:06;5.80;;;3.40;;
6358;SDS011;3212;51.460;11.868;2022-11-12T02:26:29;7.03;;;4.10;;
6358;SDS011;3212;51.460;11.868;2022-11-12T02:29:52;6.57;;;3.97;;
6358;SDS011;3212;51.460;11.868;2022-11-12T02:33:15;6.47;;;3.80;;
6358;SDS011;3212;51.460;11.868;2022-11-12T02:36:38;5.68;;;3.80;;
6358;SDS011;3212;51.460;11.868;2022-11-12T02:40:00;5.33;;;3.50;;
6358;SDS011;3212;51.460;11.868;2022-11-12T02:43:23;4.97;;;3.33;;
6358;SDS011;3212;51.460;11.868;2022-11-12T02:46:45;11.37;;;7.23;;
6358;SDS011;3212;51.460;11.868;2022-11-12T02:50:09;9.60;;;6.23;;
6358;SDS011;3212;51.460;11.868;2022-11-12T02:53:33;9.20;;;4.83;;
6358;SDS011;3212;51.460;11.868;2022-11-12T02:56:56;6.53;;;4.10;;
6358;SDS011;3212;51.460;11.868;2022-11-12T03:00:19;5.50;;;3.80;;
6358;SDS011;3212;51.460;11.868;2022-11-12T03:03:45;9.07;;;5.13;;
6358;SDS011;3212;51.460;11.868;2022-11-12T03:07:08;6.23;;;4.13;;
6358;SDS011;3212;51.460;11.868;2022-11-12T03:10:31;10.73;;;5.23;;
6358;SDS011;3212;51.460;11.868;2022-11-12T03:13:53;8.50;;;4.80;;
6358;SDS011;3212;51.460;11.868;2022-11-12T03:17:16;7.30;;;4.37;;
6358;SDS011;3212;51.460;11.868;2022-11-12T03:20:38;6.03;;;4.60;;
6358;SDS011;3212;51.460;11.868;2022-11-12T03:24:01;5.13;;;3.97;;
6358;SDS011;3212;51.460;11.868;2022-11-12T03:27:23;7.13;;;4.57;;
6358;SDS011;3212;51.460;11.868;2022-11-12T03:30:45;4.90;;;3.70;;
6358;SDS011;3212;51.460;11.868;2022-11-12T03:34:10;5.87;;;4.20;;
6358;SDS011;3212;51.460;11.868;2022-11-12T03:37:32;5.80;;;3.90;;
6358;SDS011;3212;51.460;11.868;2022-11-12T03:40:55;7.43;;;3.80;;
6358;SDS011;3212;51.460;11.868;2022-11-12T03:44:17;7.43;;;4.53;;
6358;SDS011;3212;51.460;11.868;2022-11-12T03:47:41;7.60;;;4.40;;
6358;SDS011;3212;51.460;11.868;2022-11-12T03:51:03;6.00;;;4.17;;
6358;SDS011;3212;51.460;11.868;2022-11-12T03:54:26;5.40;;;4.40;;
6358;SDS011;3212;51.460;11.868;2022-11-12T03:57:50;6.80;;;4.70;;
6358;SDS011;3212;51.460;11.868;2022-11-12T04:01:13;6.53;;;4.17;;
6358;SDS011;3212;51.460;11.868;2022-11-12T04:04:35;10.40;;;5.10;;
6358;SDS011;3212;51.460;11.868;2022-11-12T04:08:04;35.93;;;14.83;;
6358;SDS011;3212;51.460;11.868;2022-11-12T04:11:32;12.57;;;6.45;;
6358;SDS011;3212;51.460;11.868;2022-11-12T04:14:55;6.53;;;4.20;;
6358;SDS011;3212;51.460;11.868;2022-11-12T04:18:18;6.57;;;3.80;;
6358;SDS011;3212;51.460;11.868;2022-11-12T04:21:54;10.57;;;4.50;;
6358;SDS011;3212;51.460;11.868;2022-11-12T04:25:17;7.80;;;4.43;;
6358;SDS011;3212;51.460;11.868;2022-11-12T04:28:46;7.70;;;4.87;;
6358;SDS011;3212;51.460;11.868;2022-11-12T04:32:13;7.20;;;4.17;;
6358;SDS011;3212;51.460;11.868;2022-11-12T04:35:37;6.47;;;3.60;;
6358;SDS011;3212;51.460;11.868;2022-11-12T04:38:59;10.33;;;5.70;;
6358;SDS011;3212;51.460;11.868;2022-11-12T04:42:22;7.20;;;4.80;;
6358;SDS011;3212;51.460;11.868;2022-11-12T04:45:51;8.50;;;4.60;;
6358;SDS011;3212;51.460;11.868;2022-11-12T04:49:13;6.57;;;4.03;;
6358;SDS011;3212;51.460;11.868;2022-11-12T04:52:35;6.20;;;4.10;;
6358;SDS011;3212;51.460;11.868;2022-11-12T04:55:58;7.83;;;4.70;;
6358;SDS011;3212;51.460;11.868;2022-11-12T04:59:20;5.20;;;3.63;;
6358;SDS011;3212;51.460;11.868;2022-11-12T05:02:43;7.90;;;4.27;;
6358;SDS011;3212;51.460;11.868;2022-11-12T05:06:06;6.27;;;4.43;;
6358;SDS011;3212;51.460;11.868;2022-11-12T05:09:34;9.90;;;4.40;;
6358;SDS011;3212;51.460;11.868;2022-11-12T05:12:56;5.97;;;4.20;;
6358;SDS011;3212;51.460;11.868;2022-11-12T05:16:19;6.22;;;3.90;;
6358;SDS011;3212;51.460;11.868;2022-11-12T05:19:42;5.50;;;4.20;;
6358;SDS011;3212;51.460;11.868;2022-11-12T05:23:05;4.90;;;3.80;;
6358;SDS011;3212;51.460;11.868;2022-11-12T05:26:27;5.33;;;4.10;;
6358;SDS011;3212;51.460;11.868;2022-11-12T05:29:51;5.63;;;3.60;;
6358;SDS011;3212;51.460;11.868;2022-11-12T05:33:13;5.13;;;3.80;;
6358;SDS011;3212;51.460;11.868;2022-11-12T05:36:36;6.63;;;4.03;;
6358;SDS011;3212;51.460;11.868;2022-11-12T05:39:58;7.30;;;4.33;;
6358;SDS011;3212;51.460;11.868;2022-11-12T05:43:22;6.37;;;3.87;;
6358;SDS011;3212;51.460;11.868;2022-11-12T05:46:45;7.83;;;4.53;;
6358;SDS011;3212;51.460;11.868;2022-11-12T05:50:07;7.90;;;4.20;;
6358;SDS011;3212;51.460;11.868;2022-11-12T05:53:31;5.27;;;3.73;;
6358;SDS011;3212;51.460;11.868;2022-11-12T05:56:54;9.40;;;4.33;;
6358;SDS011;3212;51.460;11.868;2022-11-12T06:00:17;6.27;;;4.53;;
6358;SDS011;3212;51.460;11.868;2022-11-12T06:03:40;4.83;;;3.30;;
6358;SDS011;3212;51.460;11.868;2022-11-12T06:07:03;6.87;;;4.17;;
6358;SDS011;3212;51.460;11.868;2022-11-12T06:10:25;7.10;;;3.67;;
6358;SDS011;3212;51.460;11.868;2022-11-12T06:13:48;6.10;;;3.90;;
6358;SDS011;3212;51.460;11.868;2022-11-12T06:17:12;6.93;;;3.93;;
6358;SDS011;3212;51.460;11.868;2022-11-12T06:20:34;7.17;;;4.00;;
6358;SDS011;3212;51.460;11.868;2022-11-12T06:23:57;5.17;;;4.30;;
6358;SDS011;3212;51.460;11.868;2022-11-12T06:27:19;5.47;;;3.70;;
6358;SDS011;3212;51.460;11.868;2022-11-12T06:30:42;6.07;;;3.97;;
6358;SDS011;3212;51.460;11.868;2022-11-12T06:34:04;6.40;;;4.20;;
6358;SDS011;3212;51.460;11.868;2022-11-12T06:37:27;8.63;;;4.97;;
6358;SDS011;3212;51.460;11.868;2022-11-12T06:40:49;7.97;;;4.18;;
6358;SDS011;3212;51.460;11.868;2022-11-12T06:44:11;6.37;;;4.30;;
6358;SDS011;3212;51.460;11.868;2022-11-12T06:47:34;5.93;;;4.10;;
6358;SDS011;3212;51.460;11.868;2022-11-12T06:51:04;8.50;;;3.77;;
6358;SDS011;3212;51.460;11.868;2022-11-12T06:54:21;8.73;;;4.63;;
6358;SDS011;3212;51.460;11.868;2022-11-12T06:57:43;5.55;;;3.53;;
6358;SDS011;3212;51.460;11.868;2022-11-12T07:01:11;6.43;;;3.70;;
6358;SDS011;3212;51.460;11.868;2022-11-12T07:04:32;7.00;;;4.20;;
6358;SDS011;3212;51.460;11.868;2022-11-12T07:07:55;4.97;;;3.50;;
6358;SDS011;3212;51.460;11.868;2022-11-12T07:11:18;4.87;;;3.80;;
6358;SDS011;3212;51.460;11.868;2022-11-12T07:14:40;5.57;;;3.80;;
6358;SDS011;3212;51.460;11.868;2022-11-12T07:18:03;4.90;;;3.43;;
6358;SDS011;3212;51.460;11.868;2022-11-12T07:21:25;7.53;;;4.10;;
6358;SDS011;3212;51.460;11.868;2022-11-12T07:24:47;4.17;;;3.50;;
6358;SDS011;3212;51.460;11.868;2022-11-12T07:28:10;7.20;;;4.40;;
6358;SDS011;3212;51.460;11.868;2022-11-12T07:31:32;5.47;;;4.00;;
6358;SDS011;3212;51.460;11.868;2022-11-12T07:34:56;5.00;;;3.70;;
6358;SDS011;3212;51.460;11.868;2022-11-12T07:38:18;5.70;;;3.67;;
6358;SDS011;3212;51.460;11.868;2022-11-12T07:41:40;6.43;;;3.93;;
6358;SDS011;3212;51.460;11.868;2022-11-12T07:45:06;6.23;;;4.03;;
6358;SDS011;3212;51.460;11.868;2022-11-12T07:48:29;9.13;;;5.10;;
6358;SDS011;3212;51.460;11.868;2022-11-12T07:51:51;5.97;;;4.27;;
6358;SDS011;3212;51.460;11.868;2022-11-12T07:55:14;7.80;;;4.33;;
6358;SDS011;3212;51.460;11.868;2022-11-12T07:58:36;6.83;;;4.13;;
6358;SDS011;3212;51.460;11.868;2022-11-12T08:01:59;9.10;;;4.93;;
6358;SDS011;3212;51.460;11.868;2022-11-12T08:05:26;9.20;;;4.80;;
6358;SDS011;3212;51.460;11.868;2022-11-12T08:08:54;9.98;;;5.18;;
6358;SDS011;3212;51.460;11.868;2022-11-12T08:12:17;10.93;;;5.60;;
6358;SDS011;3212;51.460;11.868;2022-11-12T08:15:39;10.50;;;5.27;;
6358;SDS011;3212;51.460;11.868;2022-11-12T08:19:02;7.17;;;4.93;;
6358;SDS011;3212;51.460;11.868;2022-11-12T08:22:24;8.17;;;4.93;;
6358;SDS011;3212;51.460;11.868;2022-11-12T08:25:47;8.87;;;5.60;;
6358;SDS011;3212;51.460;11.868;2022-11-12T08:29:10;7.53;;;4.40;;
6358;SDS011;3212;51.460;11.868;2022-11-12T08:32:34;7.25;;;4.62;;
6358;SDS011;3212;51.460;11.868;2022-11-12T08:35:56;9.82;;;5.70;;
6358;SDS011;3212;51.460;11.868;2022-11-12T08:39:18;9.33;;;5.80;;
6358;SDS011;3212;51.460;11.868;2022-11-12T08:42:41;9.53;;;6.00;;
6358;SDS011;3212;51.460;11.868;2022-11-12T08:46:03;10.40;;;6.07;;
6358;SDS011;3212;51.460;11.868;2022-11-12T08:49:26;13.37;;;6.43;;
6358;SDS011;3212;51.460;11.868;2022-11-12T08:52:48;12.00;;;6.93;;
6358;SDS011;3212;51.460;11.868;2022-11-12T08:56:12;10.77;;;6.00;;
6358;SDS011;3212;51.460;11.868;2022-11-12T08:59:34;10.17;;;6.53;;
6358;SDS011;3212;51.460;11.868;2022-11-12T09:02:59;16.30;;;8.30;;
6358;SDS011;3212;51.460;11.868;2022-11-12T09:06:21;10.77;;;6.83;;
6358;SDS011;3212;51.460;11.868;2022-11-12T09:09:43;11.07;;;6.80;;
6358;SDS011;3212;51.460;11.868;2022-11-12T09:13:11;12.33;;;7.10;;
6358;SDS011;3212;51.460;11.868;2022-11-12T09:16:33;12.03;;;7.80;;
6358;SDS011;3212;51.460;11.868;2022-11-12T09:19:55;12.60;;;7.80;;
6358;SDS011;3212;51.460;11.868;2022-11-12T09:23:18;12.13;;;7.80;;
6358;SDS011;3212;51.460;11.868;2022-11-12T09:26:40;13.60;;;8.37;;
6358;SDS011;3212;51.460;11.868;2022-11-12T09:30:03;14.53;;;8.20;;
6358;SDS011;3212;51.460;11.868;2022-11-12T09:33:27;13.10;;;7.33;;
6358;SDS011;3212;51.460;11.868;2022-11-12T09:36:48;12.30;;;7.60;;
6358;SDS011;3212;51.460;11.868;2022-11-12T09:40:14;13.87;;;8.90;;
6358;SDS011;3212;51.460;11.868;2022-11-12T09:43:35;14.50;;;8.68;;
6358;SDS011;3212;51.460;11.868;2022-11-12T09:47:01;11.27;;;7.80;;
6358;SDS011;3212;51.460;11.868;2022-11-12T09:50:25;11.10;;;7.77;;
6358;SDS011;3212;51.460;11.868;2022-11-12T09:53:51;15.20;;;9.50;;
6358;SDS011;3212;51.460;11.868;2022-11-12T09:57:13;13.00;;;7.70;;
6358;SDS011;3212;51.460;11.868;2022-11-12T10:00:35;12.10;;;8.10;;
6358;SDS011;3212;51.460;11.868;2022-11-12T10:04:07;14.20;;;8.53;;
6358;SDS011;3212;51.460;11.868;2022-11-12T10:11:30;10.40;;;8.10;;
6358;SDS011;3212;51.460;11.868;2022-11-12T10:22:25;10.70;;;6.40;;
6358;SDS011;3212;51.460;11.868;2022-11-12T10:25:46;14.00;;;6.90;;
6358;SDS011;3212;51.460;11.868;2022-11-12T10:32:49;11.17;;;7.07;;
6358;SDS011;3212;51.460;11.868;2022-11-12T10:36:21;11.50;;;6.80;;
6358;SDS011;3212;51.460;11.868;2022-11-12T10:39:47;9.60;;;6.27;;
6358;SDS011;3212;51.460;11.868;2022-11-12T10:43:22;11.23;;;7.10;;
6358;SDS011;3212;51.460;11.868;2022-11-12T10:46:45;10.00;;;6.87;;
6358;SDS011;3212;51.460;11.868;2022-11-12T10:50:14;9.67;;;7.23;;
6358;SDS011;3212;51.460;11.868;2022-11-12T10:53:49;9.57;;;6.70;;
6358;SDS011;3212;51.460;11.868;2022-11-12T11:00:54;10.87;;;8.17;;
6358;SDS011;3212;51.460;11.868;2022-11-12T11:04:27;13.37;;;7.77;;
6358;SDS011;3212;51.460;11.868;2022-11-12T11:07:49;12.37;;;8.00;;
6358;SDS011;3212;51.460;11.868;2022-11-12T11:11:20;21.87;;;8.52;;
6358;SDS011;3212;51.460;11.868;2022-11-12T11:14:44;12.20;;;8.23;;
6358;SDS011;3212;51.460;11.868;2022-11-12T11:18:10;14.90;;;7.83;;
6358;SDS011;3212;51.460;11.868;2022-11-12T11:21:41;10.80;;;8.00;;
6358;SDS011;3212;51.460;11.868;2022-11-12T11:25:18;13.23;;;7.67;;
6358;SDS011;3212;51.460;11.868;2022-11-12T11:28:48;16.40;;;8.03;;
6358;SDS011;3212;51.460;11.868;2022-11-12T11:32:18;12.50;;;7.27;;
6358;SDS011;3212;51.460;11.868;2022-11-12T11:36:00;11.23;;;7.40;;
6358;SDS011;3212;51.460;11.868;2022-11-12T11:39:24;15.20;;;8.60;;
6358;SDS011;3212;51.460;11.868;2022-11-12T11:46:38;13.88;;;8.10;;
6358;SDS011;3212;51.460;11.868;2022-11-12T11:50:19;13.90;;;7.97;;
6358;SDS011;3212;51.460;11.868;2022-11-12T11:57:27;12.37;;;7.47;;
6358;SDS011;3212;51.460;11.868;2022-11-12T12:00:55;10.57;;;7.73;;
6358;SDS011;3212;51.460;11.868;2022-11-12T12:04:23;12.40;;;7.73;;
6358;SDS011;3212;51.460;11.868;2022-11-12T12:11:48;14.55;;;8.38;;
6358;SDS011;3212;51.460;11.868;2022-11-12T12:26:22;13.30;;;7.93;;
6358;SDS011;3212;51.460;11.868;2022-11-12T12:29:43;14.60;;;8.10;;
6358;SDS011;3212;51.460;11.868;2022-11-12T12:36:40;11.93;;;7.65;;
6358;SDS011;3212;51.460;11.868;2022-11-12T12:40:12;12.90;;;8.00;;
6358;SDS011;3212;51.460;11.868;2022-11-12T12:43:37;13.00;;;7.90;;
6358;SDS011;3212;51.460;11.868;2022-11-12T12:47:00;11.80;;;7.60;;
6358;SDS011;3212;51.460;11.868;2022-11-12T12:50:23;17.13;;;8.63;;
6358;SDS011;3212;51.460;11.868;2022-11-12T12:53:54;13.63;;;8.63;;
6358;SDS011;3212;51.460;11.868;2022-11-12T13:00:50;14.68;;;8.57;;
6358;SDS011;3212;51.460;11.868;2022-11-12T13:04:11;12.37;;;8.90;;
6358;SDS011;3212;51.460;11.868;2022-11-12T13:07:39;18.13;;;11.20;;
6358;SDS011;3212;51.460;11.868;2022-11-12T13:11:00;17.70;;;10.50;;
6358;SDS011;3212;51.460;11.868;2022-11-12T13:18:08;15.67;;;10.17;;
6358;SDS011;3212;51.460;11.868;2022-11-12T13:21:32;14.30;;;8.97;;
6358;SDS011;3212;51.460;11.868;2022-11-12T13:28:26;14.23;;;8.85;;
6358;SDS011;3212;51.460;11.868;2022-11-12T13:35:28;19.20;;;9.80;;
6358;SDS011;3212;51.460;11.868;2022-11-12T13:38:50;16.63;;;9.93;;
6358;SDS011;3212;51.460;11.868;2022-11-12T13:42:14;15.67;;;9.60;;
6358;SDS011;3212;51.460;11.868;2022-11-12T13:49:13;16.33;;;9.50;;
6358;SDS011;3212;51.460;11.868;2022-11-12T13:52:34;16.27;;;9.50;;
6358;SDS011;3212;51.460;11.868;2022-11-12T13:55:58;17.87;;;10.87;;
6358;SDS011;3212;51.460;11.868;2022-11-12T13:59:21;16.60;;;11.27;;
6358;SDS011;3212;51.460;11.868;2022-11-12T14:02:43;19.53;;;11.40;;
6358;SDS011;3212;51.460;11.868;2022-11-12T14:06:13;15.27;;;10.03;;
6358;SDS011;3212;51.460;11.868;2022-11-12T14:13:09;19.20;;;11.53;;
6358;SDS011;3212;51.460;11.868;2022-11-12T14:16:40;14.93;;;10.20;;
6358;SDS011;3212;51.460;11.868;2022-11-12T14:20:05;16.33;;;10.37;;
6358;SDS011;3212;51.460;11.868;2022-11-12T14:23:30;17.70;;;11.40;;
6358;SDS011;3212;51.460;11.868;2022-11-12T14:26:53;19.10;;;12.37;;
6358;SDS011;3212;51.460;11.868;2022-11-12T14:30:17;17.57;;;11.90;;
6358;SDS011;3212;51.460;11.868;2022-11-12T14:33:40;19.03;;;12.13;;
6358;SDS011;3212;51.460;11.868;2022-11-12T14:37:03;22.60;;;14.30;;
6358;SDS011;3212;51.460;11.868;2022-11-12T14:40:26;23.80;;;14.73;;
6358;SDS011;3212;51.460;11.868;2022-11-12T14:43:49;26.60;;;15.20;;
6358;SDS011;3212;51.460;11.868;2022-11-12T14:47:11;23.23;;;13.47;;
6358;SDS011;3212;51.460;11.868;2022-11-12T14:50:35;22.73;;;14.37;;
6358;SDS011;3212;51.460;11.868;2022-11-12T14:53:59;24.37;;;13.57;;
6358;SDS011;3212;51.460;11.868;2022-11-12T14:57:22;21.33;;;12.73;;
6358;SDS011;3212;51.460;11.868;2022-11-12T15:00:45;22.40;;;14.30;;
6358;SDS011;3212;51.460;11.868;2022-11-12T15:04:18;31.23;;;18.17;;
6358;SDS011;3212;51.460;11.868;2022-11-12T15:11:22;28.80;;;17.17;;
6358;SDS011;3212;51.460;11.868;2022-11-12T15:14:48;28.00;;;17.37;;
6358;SDS011;3212;51.460;11.868;2022-11-12T15:18:14;29.23;;;16.93;;
6358;SDS011;3212;51.460;11.868;2022-11-12T15:21:37;27.23;;;15.23;;
6358;SDS011;3212;51.460;11.868;2022-11-12T15:28:30;25.30;;;13.47;;
6358;SDS011;3212;51.460;11.868;2022-11-12T15:31:56;20.10;;;12.70;;
6358;SDS011;3212;51.460;11.868;2022-11-12T15:38:56;25.30;;;14.40;;
6358;SDS011;3212;51.460;11.868;2022-11-12T15:45:53;27.50;;;13.73;;
6358;SDS011;3212;51.460;11.868;2022-11-12T15:49:15;24.97;;;14.67;;
6358;SDS011;3212;51.460;11.868;2022-11-12T15:52:39;23.60;;;12.20;;
6358;SDS011;3212;51.460;11.868;2022-11-12T15:56:01;22.23;;;13.60;;
6358;SDS011;3212;51.460;11.868;2022-11-12T15:59:24;28.37;;;15.30;;
6358;SDS011;3212;51.460;11.868;2022-11-12T16:02:48;30.93;;;15.20;;
6358;SDS011;3212;51.460;11.868;2022-11-12T16:06:09;22.70;;;12.87;;
6358;SDS011;3212;51.460;11.868;2022-11-12T16:09:32;21.07;;;13.23;;
6358;SDS011;3212;51.460;11.868;2022-11-12T16:12:56;22.97;;;14.03;;
6358;SDS011;3212;51.460;11.868;2022-11-12T16:16:18;21.90;;;13.03;;
6358;SDS011;3212;51.460;11.868;2022-11-12T16:19:42;23.67;;;12.97;;
6358;SDS011;3212;51.460;11.868;2022-11-12T16:23:05;23.73;;;13.40;;
6358;SDS011;3212;51.460;11.868;2022-11-12T16:26:27;35.20;;;18.70;;
6358;SDS011;3212;51.460;11.868;2022-11-12T16:29:51;41.27;;;20.47;;
6358;SDS011;3212;51.460;11.868;2022-11-12T16:36:53;27.33;;;15.33;;
6358;SDS011;3212;51.460;11.868;2022-11-12T16:40:18;21.40;;;12.83;;
6358;SDS011;3212;51.460;11.868;2022-11-12T16:43:39;23.40;;;13.00;;
6358;SDS011;3212;51.460;11.868;2022-11-12T16:47:02;21.53;;;13.00;;
6358;SDS011;3212;51.460;11.868;2022-11-12T16:50:25;22.10;;;13.23;;
6358;SDS011;3212;51.460;11.868;2022-11-12T16:53:47;23.10;;;13.63;;
6358;SDS011;3212;51.460;11.868;2022-11-12T16:57:11;23.63;;;13.03;;
6358;SDS011;3212;51.460;11.868;2022-11-12T17:00:34;19.70;;;11.80;;
6358;SDS011;3212;51.460;11.868;2022-11-12T17:03:57;19.90;;;12.50;;
6358;SDS011;3212;51.460;11.868;2022-11-12T17:07:19;20.58;;;11.50;;
6358;SDS011;3212;51.460;11.868;2022-11-12T17:10:41;22.50;;;12.57;;
6358;SDS011;3212;51.460;11.868;2022-11-12T17:14:04;22.20;;;12.50;;
6358;SDS011;3212;51.460;11.868;2022-11-12T17:17:26;21.67;;;13.10;;
6358;SDS011;3212;51.460;11.868;2022-11-12T17:20:48;21.00;;;13.23;;
6358;SDS011;3212;51.460;11.868;2022-11-12T17:24:11;21.70;;;13.30;;
6358;SDS011;3212;51.460;11.868;2022-11-12T17:27:33;21.20;;;11.88;;
6358;SDS011;3212;51.460;11.868;2022-11-12T17:31:03;18.80;;;11.57;;
6358;SDS011;3212;51.460;11.868;2022-11-12T17:34:25;22.00;;;12.43;;
6358;SDS011;3212;51.460;11.868;2022-11-12T17:37:48;24.83;;;13.02;;
6358;SDS011;3212;51.460;11.868;2022-11-12T17:41:11;24.25;;;13.10;;
6358;SDS011;3212;51.460;11.868;2022-11-12T17:44:33;24.13;;;13.03;;
6358;SDS011;3212;51.460;11.868;2022-11-12T17:47:56;21.20;;;11.80;;
6358;SDS011;3212;51.460;11.868;2022-11-12T17:51:20;22.43;;;13.23;;
6358;SDS011;3212;51.460;11.868;2022-11-12T17:54:42;25.60;;;15.43;;
6358;SDS011;3212;51.460;11.868;2022-11-12T17:58:05;22.90;;;13.17;;
6358;SDS011;3212;51.460;11.868;2022-11-12T18:01:28;25.57;;;13.83;;
6358;SDS011;3212;51.460;11.868;2022-11-12T18:04:50;24.93;;;13.87;;
6358;SDS011;3212;51.460;11.868;2022-11-12T18:08:12;24.50;;;13.30;;
6358;SDS011;3212;51.460;11.868;2022-11-12T18:11:42;27.57;;;13.77;;
6358;SDS011;3212;51.460;11.868;2022-11-12T18:15:04;21.17;;;13.40;;
6358;SDS011;3212;51.460;11.868;2022-11-12T18:18:28;25.87;;;14.60;;
6358;SDS011;3212;51.460;11.868;2022-11-12T18:21:50;23.43;;;14.40;;
6358;SDS011;3212;51.460;11.868;2022-11-12T18:25:14;26.07;;;14.80;;
6358;SDS011;3212;51.460;11.868;2022-11-12T18:28:37;21.98;;;13.15;;
6358;SDS011;3212;51.460;11.868;2022-11-12T18:32:00;25.80;;;15.70;;
6358;SDS011;3212;51.460;11.868;2022-11-12T18:35:23;26.27;;;15.50;;
6358;SDS011;3212;51.460;11.868;2022-11-12T18:38:46;25.90;;;14.77;;
6358;SDS011;3212;51.460;11.868;2022-11-12T18:42:09;26.27;;;14.60;;
6358;SDS011;3212;51.460;11.868;2022-11-12T18:45:32;27.13;;;14.50;;
6358;SDS011;3212;51.460;11.868;2022-11-12T18:48:54;23.87;;;13.93;;
6358;SDS011;3212;51.460;11.868;2022-11-12T18:52:17;27.33;;;15.13;;
6358;SDS011;3212;51.460;11.868;2022-11-12T18:55:40;26.30;;;15.53;;
6358;SDS011;3212;51.460;11.868;2022-11-12T18:59:03;25.83;;;13.40;;
6358;SDS011;3212;51.460;11.868;2022-11-12T19:02:25;25.33;;;14.93;;
6358;SDS011;3212;51.460;11.868;2022-11-12T19:05:48;30.02;;;16.02;;
6358;SDS011;3212;51.460;11.868;2022-11-12T19:09:11;31.02;;;16.87;;
6358;SDS011;3212;51.460;11.868;2022-11-12T19:12:33;25.13;;;14.50;;
6358;SDS011;3212;51.460;11.868;2022-11-12T19:16:04;29.07;;;17.07;;
6358;SDS011;3212;51.460;11.868;2022-11-12T19:19:27;29.80;;;16.17;;
6358;SDS011;3212;51.460;11.868;2022-11-12T19:22:51;27.70;;;15.80;;
6358;SDS011;3212;51.460;11.868;2022-11-12T19:26:15;25.43;;;15.90;;
6358;SDS011;3212;51.460;11.868;2022-11-12T19:29:36;24.10;;;14.20;;
6358;SDS011;3212;51.460;11.868;2022-11-12T19:32:59;24.77;;;14.93;;
6358;SDS011;3212;51.460;11.868;2022-11-12T19:36:22;27.17;;;16.77;;
6358;SDS011;3212;51.460;11.868;2022-11-12T19:39:46;26.43;;;15.37;;
6358;SDS011;3212;51.460;11.868;2022-11-12T19:43:09;26.50;;;15.77;;
6358;SDS011;3212;51.460;11.868;2022-11-12T19:46:31;29.00;;;16.53;;
6358;SDS011;3212;51.460;11.868;2022-11-12T19:49:54;25.00;;;14.10;;
6358;SDS011;3212;51.460;11.868;2022-11-12T19:53:18;20.43;;;12.73;;
6358;SDS011;3212;51.460;11.868;2022-11-12T19:56:40;20.07;;;12.93;;
6358;SDS011;3212;51.460;11.868;2022-11-12T20:00:08;26.53;;;16.17;;
6358;SDS011;3212;51.460;11.868;2022-11-12T20:03:37;24.87;;;16.03;;
6358;SDS011;3212;51.460;11.868;2022-11-12T20:06:59;32.60;;;17.40;;
6358;SDS011;3212;51.460;11.868;2022-11-12T20:10:22;30.97;;;17.20;;
6358;SDS011;3212;51.460;11.868;2022-11-12T20:13:45;28.87;;;16.60;;
6358;SDS011;3212;51.460;11.868;2022-11-12T20:17:07;29.90;;;16.60;;
6358;SDS011;3212;51.460;11.868;2022-11-12T20:20:30;28.97;;;15.83;;
6358;SDS011;3212;51.460;11.868;2022-11-12T20:23:53;30.30;;;17.43;;
6358;SDS011;3212;51.460;11.868;2022-11-12T20:27:15;29.80;;;16.53;;
6358;SDS011;3212;51.460;11.868;2022-11-12T20:30:38;36.50;;;18.00;;
6358;SDS011;3212;51.460;11.868;2022-11-12T20:34:01;34.17;;;19.23;;
6358;SDS011;3212;51.460;11.868;2022-11-12T20:37:23;32.17;;;18.63;;
6358;SDS011;3212;51.460;11.868;2022-11-12T20:40:46;42.42;;;19.58;;
6358;SDS011;3212;51.460;11.868;2022-11-12T20:44:08;30.20;;;19.23;;
6358;SDS011;3212;51.460;11.868;2022-11-12T20:47:30;38.03;;;20.00;;
6358;SDS011;3212;51.460;11.868;2022-11-12T20:54:22;39.90;;;23.13;;
6358;SDS011;3212;51.460;11.868;2022-11-12T20:57:46;38.40;;;23.13;;
6358;SDS011;3212;51.460;11.868;2022-11-12T21:01:11;34.43;;;21.40;;
6358;SDS011;3212;51.460;11.868;2022-11-12T21:04:33;35.60;;;20.37;;
6358;SDS011;3212;51.460;11.868;2022-11-12T21:07:57;35.27;;;20.63;;
6358;SDS011;3212;51.460;11.868;2022-11-12T21:11:21;34.53;;;20.00;;
6358;SDS011;3212;51.460;11.868;2022-11-12T21:14:42;31.60;;;19.73;;
6358;SDS011;3212;51.460;11.868;2022-11-12T21:18:05;29.50;;;18.27;;
6358;SDS011;3212;51.460;11.868;2022-11-12T21:21:32;29.47;;;17.70;;
6358;SDS011;3212;51.460;11.868;2022-11-12T21:24:54;28.03;;;18.00;;
6358;SDS011;3212;51.460;11.868;2022-11-12T21:28:18;29.17;;;18.37;;
6358;SDS011;3212;51.460;11.868;2022-11-12T21:31:41;30.37;;;18.60;;
6358;SDS011;3212;51.460;11.868;2022-11-12T21:35:03;36.30;;;20.87;;
6358;SDS011;3212;51.460;11.868;2022-11-12T21:38:28;30.80;;;19.60;;
6358;SDS011;3212;51.460;11.868;2022-11-12T21:41:51;31.63;;;19.60;;
6358;SDS011;3212;51.460;11.868;2022-11-12T21:45:14;34.07;;;21.40;;
6358;SDS011;3212;51.460;11.868;2022-11-12T21:48:36;38.40;;;22.30;;
6358;SDS011;3212;51.460;11.868;2022-11-12T21:51:59;35.90;;;21.80;;
6358;SDS011;3212;51.460;11.868;2022-11-12T21:55:22;38.33;;;22.23;;